Time;durP1;ratioP1;P1;durP2;ratioP2;P2;SDS_P1;SDS_P2;PMS_P1;PMS_P2;Temp;Humidity;BMP_temperature;BMP_pressure;BME280_temperature;BME280_humidity;BME280_pressure;Samples;Min_cycle;Max_cycle;Signal;HPM_P1;HPM_P2
2021/08/15 00:02:01;;;;;;;35.38;10.00;;;;;;;;;;3540838;40;20034;-66
2021/08/15 00:04:27;;;;;;;44.35;10.50;;;;;;;;;;3540018;40;20049;-66
2021/08/15 00:06:53;;;;;;;35.55;9.18;;;;;;;;;;3539942;40;20838;-66
2021/08/15 00:09:19;;;;;;;39.97;9.65;;;;;;;;;;3539846;40;20642;-66
2021/08/15 00:11:45;;;;;;;33.10;9.00;;;;;;;;;;3541149;40;20030;-66
2021/08/15 00:14:11;;;;;;;12.23;5.55;;;;;;;;;;3540536;40;20034;-66
2021/08/15 00:16:37;;;;;;;9.38;4.95;;;;;;;;;;3540884;40;20042;-66
2021/08/15 00:19:05;;;;;;;13.98;6.57;;;;;;;;;;3539733;40;20037;-66
2021/08/15 00:21:31;;;;;;;18.75;5.53;;;;;;;;;;3540303;40;20026;-66
2021/08/15 00:23:57;;;;;;;11.05;5.80;;;;;;;;;;3540336;40;20128;-66
2021/08/15 00:26:23;;;;;;;12.80;6.07;;;;;;;;;;3540588;40;20774;-66
2021/08/15 00:28:49;;;;;;;13.68;6.25;;;;;;;;;;3539747;40;20026;-66
2021/08/15 00:31:15;;;;;;;17.27;5.38;;;;;;;;;;3540651;40;20053;-66
2021/08/15 00:33:41;;;;;;;11.68;5.20;;;;;;;;;;3541066;40;20398;-66
2021/08/15 00:36:07;;;;;;;9.80;4.90;;;;;;;;;;3540993;40;20339;-66
2021/08/15 00:38:33;;;;;;;11.07;4.78;;;;;;;;;;3540982;40;20045;-66
2021/08/15 00:40:59;;;;;;;9.52;4.80;;;;;;;;;;3542095;40;20734;-66
2021/08/15 00:43:27;;;;;;;8.77;4.45;;;;;;;;;;3540557;40;20136;-66
2021/08/15 00:45:53;;;;;;;14.45;4.88;;;;;;;;;;3541718;40;20093;-66
2021/08/15 00:48:19;;;;;;;7.60;4.28;;;;;;;;;;3540107;40;20030;-66
2021/08/15 00:50:45;;;;;;;9.73;5.70;;;;;;;;;;3541093;40;20046;-66
2021/08/15 00:53:11;;;;;;;8.93;4.55;;;;;;;;;;3539457;40;20148;-66
2021/08/15 00:55:38;;;;;;;11.00;4.88;;;;;;;;;;3538890;40;20703;-66
2021/08/15 00:58:04;;;;;;;9.43;5.15;;;;;;;;;;3539978;40;20813;-66
2021/08/15 01:00:30;;;;;;;10.90;4.80;;;;;;;;;;3539632;40;20037;-66
2021/08/15 01:02:56;;;;;;;9.95;5.35;;;;;;;;;;3541189;40;20074;-66
2021/08/15 01:05:22;;;;;;;16.30;5.82;;;;;;;;;;3546886;40;20031;-66
2021/08/15 01:07:48;;;;;;;12.75;5.82;;;;;;;;;;3539965;40;20038;-67
2021/08/15 01:10:14;;;;;;;17.10;5.57;;;;;;;;;;3540263;40;20046;-67
2021/08/15 01:12:40;;;;;;;13.90;6.25;;;;;;;;;;3541030;40;20438;-66
2021/08/15 01:15:06;;;;;;;12.23;5.88;;;;;;;;;;3539273;40;20117;-66
2021/08/15 01:17:32;;;;;;;20.95;7.10;;;;;;;;;;3539930;40;20040;-66
2021/08/15 01:19:58;;;;;;;9.32;5.03;;;;;;;;;;3538259;40;20034;-66
2021/08/15 01:22:24;;;;;;;11.65;5.65;;;;;;;;;;3540093;40;20034;-66
2021/08/15 01:24:50;;;;;;;22.05;8.80;;;;;;;;;;3540869;40;20031;-66
2021/08/15 01:27:16;;;;;;;22.50;7.88;;;;;;;;;;3538305;40;20696;-66
2021/08/15 01:29:44;;;;;;;28.30;8.73;;;;;;;;;;3539379;40;20027;-66
2021/08/15 01:32:10;;;;;;;12.80;6.13;;;;;;;;;;3541485;40;20030;-66
2021/08/15 01:34:36;;;;;;;17.25;5.68;;;;;;;;;;3540842;40;20033;-66
2021/08/15 01:37:02;;;;;;;10.65;5.32;;;;;;;;;;3535355;40;20389;-66
2021/08/15 01:39:28;;;;;;;14.55;6.35;;;;;;;;;;3541825;40;20806;-66
2021/08/15 01:41:53;;;;;;;16.98;7.00;;;;;;;;;;3541362;40;20497;-66
2021/08/15 01:44:20;;;;;;;13.70;6.07;;;;;;;;;;3542228;40;20565;-66
2021/08/15 01:46:46;;;;;;;13.15;5.25;;;;;;;;;;3539817;40;20046;-66
2021/08/15 01:49:12;;;;;;;11.23;4.82;;;;;;;;;;3541908;40;20050;-67
2021/08/15 01:51:38;;;;;;;11.05;4.78;;;;;;;;;;3540366;40;20041;-66
2021/08/15 01:54:04;;;;;;;19.52;5.32;;;;;;;;;;3541983;40;20507;-66
2021/08/15 01:56:30;;;;;;;9.90;4.72;;;;;;;;;;3540579;40;20096;-66
2021/08/15 01:58:56;;;;;;;15.52;5.43;;;;;;;;;;3536110;40;20085;-67
2021/08/15 02:01:22;;;;;;;12.85;4.68;;;;;;;;;;3541498;40;20038;-66
2021/08/15 02:03:48;;;;;;;19.23;7.22;;;;;;;;;;3541541;40;20037;-66
2021/08/15 02:06:14;;;;;;;14.85;4.85;;;;;;;;;;3540552;40;20030;-66
2021/08/15 02:08:40;;;;;;;10.23;4.47;;;;;;;;;;3541606;40;20074;-66
2021/08/15 02:11:06;;;;;;;10.80;4.68;;;;;;;;;;3540681;40;20305;-66
2021/08/15 02:13:32;;;;;;;12.52;4.60;;;;;;;;;;3540951;40;20026;-66
2021/08/15 02:15:58;;;;;;;12.70;5.65;;;;;;;;;;3542014;40;20503;-66
2021/08/15 02:18:24;;;;;;;10.35;4.88;;;;;;;;;;3541255;40;20042;-66
2021/08/15 02:20:50;;;;;;;9.80;5.07;;;;;;;;;;3542035;40;20054;-66
2021/08/15 02:23:16;;;;;;;11.82;5.47;;;;;;;;;;3539959;40;20033;-66
2021/08/15 02:25:42;;;;;;;13.15;5.30;;;;;;;;;;3541754;40;20428;-66
2021/08/15 02:28:08;;;;;;;12.95;5.55;;;;;;;;;;3539444;40;20034;-66
2021/08/15 02:30:34;;;;;;;10.57;5.25;;;;;;;;;;3540600;40;20050;-66
2021/08/15 02:33:00;;;;;;;11.45;5.32;;;;;;;;;;3541592;40;20030;-66
2021/08/15 02:35:30;;;;;;;10.10;5.00;;;;;;;;;;3540118;40;20039;-66
2021/08/15 02:37:56;;;;;;;15.63;5.68;;;;;;;;;;3540006;40;20687;-66
2021/08/15 02:40:22;;;;;;;8.88;4.90;;;;;;;;;;3540207;40;20070;-67
2021/08/15 02:42:48;;;;;;;13.38;5.35;;;;;;;;;;3540344;40;20046;-66
2021/08/15 02:45:14;;;;;;;14.02;5.65;;;;;;;;;;3539629;40;20132;-66
2021/08/15 02:47:40;;;;;;;11.73;5.88;;;;;;;;;;3539679;40;20042;-66
2021/08/15 02:50:06;;;;;;;16.42;6.03;;;;;;;;;;3540339;40;20645;-66
2021/08/15 02:52:32;;;;;;;13.88;5.50;;;;;;;;;;3537083;40;20086;-68
2021/08/15 02:55:01;;;;;;;15.00;6.07;;;;;;;;;;3541269;40;20046;-66
2021/08/15 02:57:27;;;;;;;13.25;5.80;;;;;;;;;;3540660;40;20022;-66
2021/08/15 02:59:53;;;;;;;13.35;6.20;;;;;;;;;;3539824;40;20018;-67
2021/08/15 03:02:19;;;;;;;12.20;5.28;;;;;;;;;;3539938;40;20038;-66
2021/08/15 03:04:46;;;;;;;12.00;5.75;;;;;;;;;;3540731;40;20030;-66
2021/08/15 03:07:11;;;;;;;11.65;5.65;;;;;;;;;;3539763;40;20037;-66
2021/08/15 03:09:37;;;;;;;18.55;5.55;;;;;;;;;;3541254;40;20074;-66
2021/08/15 03:12:03;;;;;;;16.35;5.55;;;;;;;;;;3539900;40;20045;-67
2021/08/15 03:14:29;;;;;;;13.07;5.47;;;;;;;;;;3539768;40;20085;-66
2021/08/15 03:16:55;;;;;;;13.95;5.43;;;;;;;;;;3540707;40;20034;-66
2021/08/15 03:19:21;;;;;;;15.55;5.32;;;;;;;;;;3535745;40;20113;-67
2021/08/15 03:21:47;;;;;;;13.25;5.28;;;;;;;;;;3540677;40;20042;-66
2021/08/15 03:24:13;;;;;;;12.82;4.93;;;;;;;;;;3539614;40;20026;-66
2021/08/15 03:26:43;;;;;;;12.30;5.00;;;;;;;;;;3535943;40;20038;-66
2021/08/15 03:29:09;;;;;;;7.80;4.50;;;;;;;;;;3539513;40;20259;-66
2021/08/15 03:31:35;;;;;;;17.65;5.18;;;;;;;;;;3536949;40;20400;-66
2021/08/15 03:34:01;;;;;;;12.73;5.28;;;;;;;;;;3539112;40;20502;-66
2021/08/15 03:36:27;;;;;;;16.55;5.82;;;;;;;;;;3539671;40;20408;-66
2021/08/15 03:38:53;;;;;;;10.23;5.28;;;;;;;;;;3538138;40;20487;-67
2021/08/15 03:41:19;;;;;;;15.88;5.40;;;;;;;;;;3540596;40;20463;-68
2021/08/15 03:43:45;;;;;;;14.13;5.43;;;;;;;;;;3538456;40;20680;-66
2021/08/15 03:46:11;;;;;;;13.05;5.15;;;;;;;;;;3539993;40;20391;-66
2021/08/15 03:48:37;;;;;;;10.05;5.03;;;;;;;;;;3537083;40;20114;-66
2021/08/15 03:51:03;;;;;;;10.48;5.18;;;;;;;;;;3540373;40;20740;-67
2021/08/15 03:53:29;;;;;;;10.80;5.20;;;;;;;;;;3540501;40;20564;-66
2021/08/15 03:55:54;;;;;;;12.38;5.35;;;;;;;;;;3540468;40;20344;-67
2021/08/15 03:58:20;;;;;;;15.18;4.68;;;;;;;;;;3533899;40;20795;-67
2021/08/15 04:00:46;;;;;;;11.90;5.25;;;;;;;;;;3539979;40;20035;-67
2021/08/15 04:03:13;;;;;;;10.57;4.88;;;;;;;;;;3540175;40;20037;-66
2021/08/15 04:05:40;;;;;;;7.85;4.63;;;;;;;;;;3539397;40;20053;-67
2021/08/15 04:08:06;;;;;;;8.80;5.03;;;;;;;;;;3538821;40;20032;-67
2021/08/15 04:10:32;;;;;;;9.80;4.82;;;;;;;;;;3539307;40;20324;-66
2021/08/15 04:12:58;;;;;;;11.63;5.15;;;;;;;;;;3539837;40;20691;-67
2021/08/15 04:15:24;;;;;;;9.00;4.97;;;;;;;;;;3541927;40;20042;-66
2021/08/15 04:17:50;;;;;;;13.60;5.32;;;;;;;;;;3539974;40;20030;-67
2021/08/15 04:20:15;;;;;;;13.88;4.70;;;14.00;99.90;;;;;;3540712;40;20089;-66
2021/08/15 04:22:41;;;;;;;12.05;5.45;;;;;;;;;;3541831;40;20046;-66
2021/08/15 04:25:07;;;;;;;12.48;5.43;;;;;;;;;;3541130;40;20303;-66
2021/08/15 04:27:33;;;;;;;10.55;5.13;;;;;;;;;;3540953;40;20058;-67
2021/08/15 04:29:59;;;;;;;16.23;6.10;;;;;;;;;;3541818;40;20048;-67
2021/08/15 04:32:25;;;;;;;8.05;5.45;;;;;;;;;;3541945;40;20056;-66
2021/08/15 04:34:51;;;;;;;18.25;5.93;;;;;;;;;;3542824;40;20085;-67
2021/08/15 04:37:18;;;;;;;10.35;5.80;;;;;;;;;;3542180;40;20038;-66
2021/08/15 04:39:44;;;;;;;17.05;6.15;;;;;;;;;;3540058;40;20086;-66
2021/08/15 04:42:10;;;;;;;14.18;6.03;;;;;;;;;;3541177;40;20308;-67
2021/08/15 04:44:37;;;;;;;14.20;7.15;;;;;;;;;;3542040;40;20069;-66
2021/08/15 04:47:03;;;;;;;14.80;7.20;;;;;;;;;;3539130;40;20026;-66
2021/08/15 04:49:29;;;;;;;18.58;7.32;;;;;;;;;;3542228;40;20529;-66
2021/08/15 04:51:55;;;;;;;14.95;6.43;;;;;;;;;;3541711;40;20423;-67
2021/08/15 04:54:23;;;;;;;13.60;6.07;;;;;;;;;;3541859;40;20026;-66
2021/08/15 04:56:49;;;;;;;13.00;6.32;;;;;;;;;;3539946;40;20120;-67
2021/08/15 04:59:15;;;;;;;15.27;6.30;;;;;;;;;;3539641;40;20311;-67
2021/08/15 05:01:41;;;;;;;11.98;5.80;;;;;;;;;;3541470;40;20038;-67
2021/08/15 05:04:07;;;;;;;13.38;6.82;;;;;;;;;;3542154;40;20050;-66
2021/08/15 05:06:33;;;;;;;12.40;6.18;;;;;;;;;;3541808;40;20022;-66
2021/08/15 05:08:59;;;;;;;14.35;7.32;;;;;;;;;;3540881;40;20030;-67
2021/08/15 05:11:25;;;;;;;17.70;7.95;;;;;;;;;;3541831;40;20156;-66
2021/08/15 05:13:51;;;;;;;13.63;6.88;;;;;;;;;;3540574;40;20019;-66
2021/08/15 05:16:17;;;;;;;18.13;8.57;;;;;;;;;;3541828;40;20066;-66
2021/08/15 05:18:43;;;;;;;19.02;6.60;;;;;;;;;;3541801;40;20038;-66
2021/08/15 05:21:09;;;;;;;14.52;6.53;;;;;;;;;;3538456;40;20078;-66
2021/08/15 05:23:34;;;;;;;21.13;6.80;;;;;;;;;;3542303;40;20026;-67
2021/08/15 05:26:01;;;;;;;10.43;6.50;;;;;;;;;;3541110;40;20038;-67
2021/08/15 05:28:27;;;;;;;12.85;6.63;;;;;;;;;;3542194;40;20038;-66
2021/08/15 05:30:53;;;;;;;11.43;6.35;;;;;;;;;;3541034;40;20028;-66
2021/08/15 05:33:19;;;;;;;13.00;6.55;;;;;;;;;;3539794;40;20049;-66
2021/08/15 05:35:44;;;;;;;19.88;6.32;;;;;;;;;;3542225;40;20045;-67
2021/08/15 05:38:10;;;;;;;15.55;6.10;;;;;;;;;;3541999;40;20038;-67
2021/08/15 05:40:36;;;;;;;18.88;6.28;;;;;;;;;;3540667;40;20038;-68
2021/08/15 05:43:02;;;;;;;18.75;6.95;;;;;;;;;;3541626;40;20050;-68
2021/08/15 05:45:29;;;;;;;14.82;5.90;;;;;;;;;;3541843;40;20039;-68
2021/08/15 05:47:54;;;;;;;12.60;6.00;;;;;;;;;;3541355;40;21958;-68
2021/08/15 05:50:20;;;;;;;15.82;6.28;;;;;;;;;;3542716;40;20038;-68
2021/08/15 05:52:46;;;;;;;14.85;5.32;;;;;;;;;;3541554;40;20582;-68
2021/08/15 05:55:12;;;;;;;15.43;5.55;;;;;;;;;;3541846;40;20078;-68
2021/08/15 05:57:39;;;;;;;12.65;5.95;;;;;;;;;;3540691;40;20042;-68
2021/08/15 06:00:04;;;;;;;20.05;7.55;;;;;;;;;;3542298;40;20042;-68
2021/08/15 06:02:37;;;;;;;28.52;8.93;;;;;;;;;;3541953;40;20101;-68
2021/08/15 06:05:03;;;;;;;19.85;8.35;;;;;;;;;;3541906;40;20082;-68
2021/08/15 06:07:29;;;;;;;23.70;8.55;;;;;;;;;;3540442;40;20073;-68
2021/08/15 06:09:55;;;;;;;25.70;8.68;;;;;;;;;;3540906;40;20026;-68
2021/08/15 06:12:21;;;;;;;30.75;9.10;;;;;;;;;;3541839;40;20037;-68
2021/08/15 06:14:47;;;;;;;15.98;5.22;;;;;;;;;;3540774;40;20696;-68
2021/08/15 06:17:13;;;;;;;15.55;4.75;;;;;;;;;;3540413;40;20116;-68
2021/08/15 06:19:39;;;;;;;12.68;4.85;;;;;;;;;;3542286;40;20049;-67
2021/08/15 06:22:05;;;;;;;14.88;5.47;;;;;;;;;;3540457;40;20046;-66
2021/08/15 06:24:31;;;;;;;16.08;4.63;;;;;;;;;;3541859;40;20395;-66
2021/08/15 06:26:57;;;;;;;22.73;5.65;;;;;;;;;;3541864;40;20063;-69
2021/08/15 06:29:23;;;;;;;14.77;5.35;;;;;;;;;;3541983;40;20042;-68
2021/08/15 06:31:49;;;;;;;24.88;6.30;;;;;;;;;;3541861;40;20022;-68
2021/08/15 06:34:15;;;;;;;13.18;4.68;;;;;;;;;;3539586;40;20033;-68
2021/08/15 06:36:41;;;;;;;13.80;4.40;;;;;;;;;;3541778;40;20034;-68
2021/08/15 06:39:07;;;;;;;15.82;4.75;;;;;;;;;;3542039;40;20038;-68
2021/08/15 06:41:33;;;;;;;11.63;3.92;;;;;;;;;;3541905;40;20030;-67
2021/08/15 06:43:59;;;;;;;14.50;5.28;;;;;;;;;;3541508;40;20315;-68
2021/08/15 06:46:25;;;;;;;16.88;4.75;;;;;;;;;;3540704;40;20034;-68
2021/08/15 06:48:50;;;;;;;15.02;5.35;;;;;;;;;;3540078;40;20120;-67
2021/08/15 06:51:16;;;;;;;11.32;4.90;;;;;;;;;;3541683;40;20045;-68
2021/08/15 06:53:42;;;;;;;10.57;5.20;;;;;;;;;;3539738;40;20732;-68
2021/08/15 06:56:10;;;;;;;12.60;4.85;;;;;;;;;;3540624;40;20871;-67
2021/08/15 06:58:36;;;;;;;13.00;4.80;;;;;;;;;;3539813;40;20045;-67
2021/08/15 07:01:02;;;;;;;14.70;4.40;;;;;;;;;;3540292;40;20046;-67
2021/08/15 07:03:28;;;;;;;13.32;5.07;;;;;;;;;;3540616;40;20026;-67
2021/08/15 07:05:54;;;;;;;18.88;4.88;;;;;;;;;;3540993;40;20070;-67
2021/08/15 07:08:20;;;;;;;11.68;4.68;;;;;;;;;;3540407;40;20324;-68
2021/08/15 07:10:46;;;;;;;12.23;4.43;;;;;;;;;;3537010;40;20136;-68
2021/08/15 07:13:12;;;;;;;15.20;4.50;;;;;;;;;;3539306;40;20088;-66
2021/08/15 07:15:38;;;;;;;15.95;4.03;;;;;;;;;;3540419;40;20367;-69
2021/08/15 07:18:03;;;;;;;19.73;6.43;;;;;;;;;;3541311;40;20042;-69
2021/08/15 07:20:29;;;;;;;11.90;4.45;;;;;;;;;;3541609;40;20073;-68
2021/08/15 07:22:56;;;;;;;13.90;4.10;;;;;;;;;;3533298;40;20042;-66
2021/08/15 07:25:24;;;;;;;14.27;4.43;;;;;;;;;;3540831;40;20172;-66
2021/08/15 07:27:50;;;;;;;12.93;4.22;;;;;;;;;;3536334;40;20116;-66
2021/08/15 07:30:16;;;;;;;15.55;4.80;;;;;;;;;;3540523;40;20048;-66
2021/08/15 07:32:44;;;;;;;34.10;15.63;;;;;;;;;;3540826;40;20088;-64
2021/08/15 07:35:10;;;;;;;27.08;6.93;;;;;;;;;;3540726;40;20028;-66
2021/08/15 07:37:36;;;;;;;17.15;5.80;;;;;;;;;;3540836;40;20181;-66
2021/08/15 07:40:02;;;;;;;24.05;7.00;;;;;;;;;;3541188;40;20058;-66
2021/08/15 07:42:28;;;;;;;28.15;7.25;;;;;;;;;;3541331;40;20307;-66
2021/08/15 07:44:54;;;;;;;20.60;6.70;;;;;;;;;;3540940;40;20027;-66
2021/08/15 07:47:20;;;;;;;25.42;6.30;;;;;;;;;;3541073;40;20033;-66
2021/08/15 07:49:46;;;;;;;15.55;4.60;;;;;;;;;;3540711;40;20045;-67
2021/08/15 07:52:12;;;;;;;15.02;4.00;;;;;;;;;;3540925;40;20039;-66
2021/08/15 07:54:38;;;;;;;15.13;3.95;;;;;;;;;;3541015;40;20916;-66
2021/08/15 07:57:04;;;;;;;20.40;4.32;;;;;;;;;;3539392;40;20083;-66
2021/08/15 07:59:30;;;;;;;11.40;4.03;;;;;;;;;;3538653;40;20034;-66
2021/08/15 08:01:56;;;;;;;16.55;4.60;;;;;;;;;;3537682;40;20370;-66
2021/08/15 08:04:22;;;;;;;14.55;4.13;;;;;;;;;;3540883;40;20036;-66
2021/08/15 08:06:49;;;;;;;14.70;5.18;;;;;;;;;;3538979;40;20034;-66
2021/08/15 08:09:15;;;;;;;15.63;5.78;;;;;;;;;;3546209;40;20066;-66
2021/08/15 08:11:41;;;;;;;17.25;5.80;;;;;;;;;;3540773;40;20642;-66
2021/08/15 08:14:07;;;;;;;26.65;7.38;;;;;;;;;;3534584;40;20438;-66
2021/08/15 08:16:33;;;;;;;36.28;8.73;;;;;;;;;;3540627;40;20042;-66
2021/08/15 08:18:59;;;;;;;25.83;8.02;;;;;;;;;;3540344;40;20026;-66
2021/08/15 08:21:25;;;;;;;28.08;8.07;;;;;;;;;;3540018;40;20030;-66
2021/08/15 08:23:51;;;;;;;24.02;7.43;;;;;;;;;;3540332;40;20022;-68
2021/08/15 08:26:18;;;;;;;16.33;6.22;;;;;;;;;;3540528;40;20045;-64
2021/08/15 08:28:44;;;;;;;33.83;8.45;;;;;;;;;;3540037;40;20066;-64
2021/08/15 08:31:10;;;;;;;36.40;7.90;;;;;;;;;;3540161;40;20035;-65
2021/08/15 08:33:36;;;;;;;22.98;6.75;;;;;;;;;;3540309;40;20038;-64
2021/08/15 08:36:02;;;;;;;54.00;9.25;;;;;;;;;;3540345;40;20027;-65
2021/08/15 08:38:28;;;;;;;58.45;8.93;;;;;;;;;;3539465;40;20034;-65
2021/08/15 08:40:54;;;;;;;70.53;10.68;;;;;;;;;;3539338;40;20054;-64
2021/08/15 08:43:20;;;;;;;48.60;7.95;;;;;;;;;;3538739;40;20049;-64
2021/08/15 08:45:46;;;;;;;54.17;8.68;;;;;;;;;;3538946;40;20027;-64
2021/08/15 08:48:12;;;;;;;63.38;9.95;;;;;;;;;;3540031;40;20416;-64
2021/08/15 08:50:39;;;;;;;81.93;10.90;;;;;;;;;;3539601;40;20670;-65
2021/08/15 08:53:05;;;;;;;60.22;9.35;;;;;;;;;;3540249;40;20049;-65
2021/08/15 08:55:31;;;;;;;81.82;10.68;;;;;;;;;;3539135;40;20077;-65
2021/08/15 08:57:57;;;;;;;56.25;8.93;;;;;;;;;;3538246;40;20400;-64
2021/08/15 09:00:23;;;;;;;41.92;7.50;;;;;;;;;;3537396;40;20031;-65
2021/08/15 09:02:49;;;;;;;34.67;8.18;;;;;;;;;;3537791;40;20038;-64
2021/08/15 09:05:15;;;;;;;41.80;8.38;;;;;;;;;;3540958;40;20022;-64
2021/08/15 09:07:41;;;;;;;54.85;8.95;;;;;;;;;;3538691;40;20028;-64
2021/08/15 09:10:07;;;;;;;88.88;13.75;;;;;;;;;;3542181;40;20037;-65
2021/08/15 09:12:33;;;;;;;80.43;11.25;;;;;;;;;;3542404;40;20030;-64
2021/08/15 09:14:59;;;;;;;59.35;9.60;;;;;;;;;;3541810;40;20420;-64
2021/08/15 09:17:25;;;;;;;39.63;9.00;;;;;;;;;;3541570;40;20046;-64
2021/08/15 09:19:51;;;;;;;82.68;11.68;;;;;;;;;;3542007;40;20046;-64
2021/08/15 09:22:17;;;;;;;106.30;13.90;;;;;;;;;;3541494;40;20038;-64
2021/08/15 09:24:43;;;;;;;95.70;11.90;;;;;;;;;;3542340;40;20031;-64
2021/08/15 09:27:09;;;;;;;107.78;13.63;;;;;;;;;;3541534;40;20168;-64
2021/08/15 09:29:35;;;;;;;75.10;10.13;;;;;;;;;;3541898;40;20038;-65
2021/08/15 09:32:01;;;;;;;83.95;11.10;;;;;;;;;;3540901;40;20416;-64
2021/08/15 09:34:27;;;;;;;73.43;10.18;;;;;;;;;;3542013;40;20115;-65
2021/08/15 09:36:53;;;;;;;58.88;9.30;;;;;;;;;;3541584;40;20052;-64
2021/08/15 09:39:19;;;;;;;70.63;10.60;;;;;;;;;;3541313;40;20030;-65
2021/08/15 09:41:45;;;;;;;51.13;9.10;;;;;;;;;;3541434;40;20022;-64
2021/08/15 09:44:11;;;;;;;54.35;8.73;;;;;;;;;;3541016;40;20049;-65
2021/08/15 09:46:37;;;;;;;69.22;10.45;;;;;;;;;;3542019;40;20038;-65
2021/08/15 09:49:03;;;;;;;68.53;10.27;;;;;;;;;;3541942;40;20698;-64
2021/08/15 09:51:34;;;;;;;85.60;12.38;;;;;;;;;;3542093;40;20034;-64
2021/08/15 09:54:00;;;;;;;69.47;10.40;;;;;;;;;;3541515;40;20031;-64
2021/08/15 09:56:26;;;;;;;66.88;10.18;;;;;;;;;;3540626;40;20038;-64
2021/08/15 09:58:52;;;;;;;82.28;11.93;;;;;;;;;;3540125;40;20026;-64
2021/08/15 10:01:17;;;;;;;97.28;11.88;;;;;;;;;;3540660;40;20037;-64
2021/08/15 10:03:43;;;;;;;84.82;11.50;;;;;;;;;;3539016;40;20022;-64
2021/08/15 10:06:09;;;;;;;152.73;21.10;;;;;;;;;;3539898;40;20045;-64
2021/08/15 10:08:36;;;;;;;285.27;197.90;;;;;;;;;;3540243;40;20042;-64
2021/08/15 10:11:02;;;;;;;195.32;93.53;;;;;;;;;;3540675;40;20120;-65
2021/08/15 10:13:28;;;;;;;373.33;323.50;;;;;;;;;;3540479;40;20049;-65
2021/08/15 10:15:53;;;;;;;192.25;79.07;;;;;;;;;;3541038;40;20034;-65
2021/08/15 10:18:19;;;;;;;102.75;13.07;;;;;;;;;;3541621;40;20027;-64
2021/08/15 10:20:45;;;;;;;119.00;14.88;;;;;;;;;;3541840;40;20026;-65
2021/08/15 10:23:12;;;;;;;112.13;14.07;;;;;;;;;;3542127;40;20049;-65
2021/08/15 10:25:40;;;;;;;129.68;32.55;;;;;;;;;;3541929;40;20035;-64
2021/08/15 10:28:06;;;;;;;121.85;21.13;;;;;;;;;;3541632;40;20023;-65
2021/08/15 10:30:32;;;;;;;125.63;17.98;;;;;;;;;;3541609;40;20022;-65
2021/08/15 10:32:58;;;;;;;118.32;16.38;;;;;;;;;;3541966;40;20026;-65
2021/08/15 10:35:24;;;;;;;124.97;20.42;;;;;;;;;;3541910;40;20027;-65
2021/08/15 10:37:51;;;;;;;157.32;46.70;;;;;;;;;;3542102;40;20490;-65
2021/08/15 10:40:16;;;;;;;101.53;13.95;;;;;;;;;;3542507;40;20019;-65
2021/08/15 10:42:42;;;;;;;135.07;34.42;;;;;;;;;;3542223;40;20052;-64
2021/08/15 10:45:08;;;;;;;125.18;42.30;;;;;;;;;;3542154;40;20124;-65
2021/08/15 10:47:35;;;;;;;144.52;39.17;;;;;;;;;;3542023;40;20028;-64
2021/08/15 10:50:03;;;;;;;126.13;25.25;;;;;;;;;;3541566;40;20054;-64
2021/08/15 10:52:29;;;;;;;103.95;28.77;;;;;;;;;;3541804;40;20031;-65
2021/08/15 10:54:59;;;;;;;114.47;45.30;;;;;;;;;;3542032;40;20043;-65
2021/08/15 10:57:25;;;;;;;147.77;75.07;;;;;;;;;;3541365;40;20034;-67
2021/08/15 10:59:51;;;;;;;124.22;41.33;;;;;;;;;;3540683;40;20595;-64
2021/08/15 11:02:17;;;;;;;128.10;66.50;;;;;;;;;;3542204;40;20042;-64
2021/08/15 11:04:43;;;;;;;101.55;15.27;;;;;;;;;;3541746;40;20030;-64
2021/08/15 11:07:09;;;;;;;217.50;117.10;;;;;;;;;;3541307;40;20038;-64
2021/08/15 11:09:35;;;;;;;247.93;166.55;;;;;;;;;;3541614;40;20027;-64
2021/08/15 11:12:01;;;;;;;228.38;160.40;;;;;;;;;;3540286;40;20079;-64
2021/08/15 11:14:27;;;;;;;137.32;40.03;;;;;;;;;;3539881;40;20166;-64
2021/08/15 11:16:53;;;;;;;135.55;27.48;;;;;;;;;;3539076;40;20801;-64
2021/08/15 11:19:19;;;;;;;101.43;13.88;;;;;;;;;;3539072;40;20033;-64
2021/08/15 11:21:45;;;;;;;103.68;13.18;;;;;;;;;;3538477;40;20026;-64
2021/08/15 11:24:10;;;;;;;144.50;43.92;;;;;;;;;;3539786;40;20046;-64
2021/08/15 11:26:36;;;;;;;423.77;380.50;;;;;;;;;;3539602;40;20415;-64
2021/08/15 11:29:04;;;;;;;788.90;707.67;;;;;;;;;;3540796;40;20038;-64
2021/08/15 11:31:30;;;;;;;304.27;273.60;;;;;;;;;;3539637;40;20037;-65
2021/08/15 11:33:56;;;;;;;321.33;288.08;;;;;;;;;;3539582;40;20034;-64
2021/08/15 11:36:24;;;;;;;202.75;173.20;;;;;;;;;;3540202;40;20034;-65
2021/08/15 11:38:50;;;;;;;159.48;77.50;;;;;;;;;;3540868;40;20376;-64
2021/08/15 11:41:16;;;;;;;144.00;19.42;;;;;;;;;;3541108;40;20026;-64
2021/08/15 11:43:42;;;;;;;144.38;20.30;;;;;;;;;;3541865;40;20050;-64
2021/08/15 11:46:10;;;;;;;96.75;12.95;;;;;;;;;;3539912;40;20359;-64
2021/08/15 11:48:37;;;;;;;134.63;16.02;;;;;;;;;;3538858;40;20070;-65
2021/08/15 11:51:03;;;;;;;103.93;13.45;;;;;;;;;;3538066;40;20038;-65
2021/08/15 11:53:30;;;;;;;115.97;18.27;;;;;;;;;;3541149;40;20034;-65
2021/08/15 11:55:56;;;;;;;136.30;27.88;;;;;;;;;;3540362;40;20034;-64
2021/08/15 11:58:22;;;;;;;165.60;76.05;;;;;;;;;;3540405;40;20022;-64
2021/08/15 12:00:48;;;;;;;148.07;31.35;;;;;;;;;;3540668;40;20120;-64
2021/08/15 12:03:14;;;;;;;118.13;15.10;;;;;;;;;;3540598;40;20030;-64
2021/08/15 12:05:40;;;;;;;109.22;14.40;;;;;;;;;;3540426;40;20049;-64
2021/08/15 12:08:06;;;;;;;86.13;12.20;;;;;;;;;;3540213;40;20289;-64
2021/08/15 12:10:32;;;;;;;126.05;16.75;;;;;;;;;;3538982;40;20059;-64
2021/08/15 12:12:58;;;;;;;99.13;14.15;;;;;;;;;;3541263;40;20043;-64
2021/08/15 12:15:24;;;;;;;87.50;12.05;;;;;;;;;;3541336;40;20316;-64
2021/08/15 12:17:50;;;;;;;96.93;12.38;;;;;;;;;;3538806;40;20037;-64
2021/08/15 12:20:16;;;;;;;560.40;502.58;;;;;;;;;;3541323;40;20042;-64
2021/08/15 12:22:42;;;;;;;225.30;158.55;;;;;;;;;;3540575;40;20041;-64
2021/08/15 12:25:08;;;;;;;122.95;15.30;;;;;;;;;;3541475;40;20441;-64
2021/08/15 12:27:34;;;;;;;86.10;11.35;;;;;;;;;;3539916;40;20148;-64
2021/08/15 12:29:59;;;;;;;103.40;12.90;;;;;;;;;;3538709;40;20270;-66
2021/08/15 12:32:25;;;;;;;125.57;17.33;;;;;;;;;;3541018;40;20387;-64
2021/08/15 12:34:51;;;;;;;137.88;19.20;;;;;;;;;;3540734;40;20051;-64
2021/08/15 12:37:17;;;;;;;134.60;23.92;;;;;;;;;;3541860;40;20027;-65
2021/08/15 12:39:43;;;;;;;160.25;63.17;;;;;;;;;;3540883;40;20141;-66
2021/08/15 12:42:09;;;;;;;146.27;37.90;;;;;;;;;;3540847;40;20347;-66
2021/08/15 12:44:35;;;;;;;147.13;18.35;;;;;;;;;;3541823;40;20037;-66
2021/08/15 12:47:03;;;;;;;163.70;23.30;;;;;;;;;;3538573;40;20045;-66
2021/08/15 12:49:29;;;;;;;192.90;64.35;;;;;;;;;;3536332;40;20042;-66
2021/08/15 12:51:55;;;;;;;146.43;65.97;;;;;;;;;;3539536;40;20109;-68
2021/08/15 12:54:21;;;;;;;143.13;60.08;;;;;;;;;;3540313;40;20034;-66
2021/08/15 12:56:47;;;;;;;144.93;18.02;;;;;;;;;;3540313;40;20755;-66
2021/08/15 12:59:13;;;;;;;127.03;16.02;;;;;;;;;;3541419;40;20061;-66
2021/08/15 13:01:39;;;;;;;123.13;18.13;;;;;;;;;;3538936;40;20499;-66
2021/08/15 13:04:05;;;;;;;117.72;15.18;;;;;;;;;;3541967;40;20034;-66
2021/08/15 13:06:33;;;;;;;95.30;13.25;;;;;;;;;;3538142;40;20027;-66
2021/08/15 13:08:59;;;;;;;110.18;15.20;;;;;;;;;;3540585;40;20048;-66
2021/08/15 13:11:25;;;;;;;106.28;13.80;;;;;;;;;;3541581;40;20138;-66
2021/08/15 13:13:51;;;;;;;103.50;13.43;;;;;;;;;;3540974;40;20460;-66
2021/08/15 13:16:17;;;;;;;114.97;21.85;;;;;;;;;;3539713;40;20051;-66
2021/08/15 13:18:43;;;;;;;89.80;19.55;;;;;;;;;;3540094;40;20043;-65
2021/08/15 13:21:09;;;;;;;118.45;21.33;;;;;;;;;;3541639;40;20047;-67
2021/08/15 13:23:35;;;;;;;177.23;67.80;;;;;;;;;;3541619;40;20026;-66
2021/08/15 13:26:02;;;;;;;97.15;12.35;;;;;;;;;;3541593;40;20420;-65
2021/08/15 13:28:28;;;;;;;134.27;20.98;;;;;;;;;;3539789;40;20063;-65
2021/08/15 13:30:54;;;;;;;180.82;81.50;;;;;;;;;;3541086;40;20069;-67
2021/08/15 13:33:20;;;;;;;172.77;70.88;;;;;;;;;;3541647;40;20046;-69
2021/08/15 13:35:46;;;;;;;187.80;93.43;;;;;;;;;;3540110;40;20178;-66
2021/08/15 13:38:12;;;;;;;146.52;19.17;;;;;;;;;;3539981;40;20619;-66
2021/08/15 13:40:38;;;;;;;131.25;26.30;;;;;;;;;;3540800;40;20111;-66
2021/08/15 13:43:04;;;;;;;147.48;37.33;;;;;;;;;;3542327;40;20098;-66
2021/08/15 13:45:30;;;;;;;169.95;66.88;;;;;;;;;;3541286;40;20046;-67
2021/08/15 13:47:56;;;;;;;193.07;93.82;;;;;;;;;;3540037;40;20045;-67
2021/08/15 13:50:22;;;;;;;119.63;44.08;;;;;;;;;;3541806;40;20057;-66
2021/08/15 13:52:48;;;;;;;142.60;59.40;;;;;;;;;;3539744;40;20050;-66
2021/08/15 13:55:14;;;;;;;177.75;69.88;;;;;;;;;;3541419;40;20022;-66
2021/08/15 13:57:40;;;;;;;151.40;61.05;;;;;;;;;;3540384;40;20045;-66
2021/08/15 14:00:06;;;;;;;141.65;32.83;;;;;;;;;;3540906;40;20035;-66
2021/08/15 14:02:32;;;;;;;113.32;15.05;;;;;;;;;;3540138;40;20034;-66
2021/08/15 14:04:58;;;;;;;98.57;14.93;;;;;;;;;;3541791;40;20080;-66
2021/08/15 14:07:24;;;;;;;118.80;16.30;;;;;;;;;;3540187;40;20403;-67
2021/08/15 14:09:50;;;;;;;64.43;9.35;;;;;;;;;;3540528;40;20489;-67
2021/08/15 14:12:16;;;;;;;168.77;80.28;;;;;;;;;;3539192;40;20026;-67
2021/08/15 14:14:42;;;;;;;114.43;18.25;;;;;;;;;;3541175;40;20058;-66